createdAt,value
2023-04-09T00:01:17.726Z,9.40
2023-04-09T00:06:20.165Z,15.75
2023-04-09T00:11:22.547Z,16.95
2023-04-09T00:16:25.061Z,19.40
2023-04-09T00:21:27.463Z,12.32
2023-04-09T00:26:29.929Z,12.90
2023-04-09T00:31:33.333Z,9.05
2023-04-09T00:36:43.399Z,6.68
2023-04-09T00:41:46.079Z,6.63
2023-04-09T00:46:48.521Z,5.93
2023-04-09T00:51:51.721Z,6.57
2023-04-09T00:56:56.417Z,9.48
2023-04-09T01:01:58.961Z,14.75
2023-04-09T01:07:17.432Z,11.13
2023-04-09T01:12:38.868Z,10.40
2023-04-09T01:17:47.643Z,10.93
2023-04-09T01:22:59.951Z,11.15
2023-04-09T01:28:19.345Z,11.90
2023-04-09T01:33:24.154Z,9.40
2023-04-09T01:38:28.072Z,9.90
2023-04-09T01:43:32.961Z,10.70
2023-04-09T01:48:36.014Z,9.18
2023-04-09T01:53:38.535Z,10.65
2023-04-09T01:58:41.580Z,8.30
2023-04-09T02:03:49.463Z,7.18
2023-04-09T02:08:54.195Z,7.30
2023-04-09T02:13:58.654Z,11.55
2023-04-09T02:19:21.058Z,9.82
2023-04-09T02:24:23.496Z,9.82
2023-04-09T02:29:25.966Z,9.05
2023-04-09T02:34:28.802Z,7.97
2023-04-09T02:39:31.255Z,6.93
2023-04-09T02:44:33.967Z,9.60
2023-04-09T02:49:36.861Z,7.47
2023-04-09T02:54:39.348Z,4.85
2023-04-09T02:59:42.044Z,5.75
2023-04-09T03:04:44.568Z,4.32
2023-04-09T03:09:47.034Z,3.67
2023-04-09T03:14:49.495Z,4.72
2023-04-09T03:19:52.762Z,4.75
2023-04-09T03:24:56.657Z,4.85
2023-04-09T03:29:59.242Z,4.07
2023-04-09T03:35:10.200Z,4.57
2023-04-09T03:40:14.486Z,4.75
2023-04-09T03:45:17.104Z,6.10
2023-04-09T03:50:22.872Z,8.00
2023-04-09T03:55:29.722Z,7.00
2023-04-09T04:00:34.893Z,7.18
2023-04-09T04:06:04.336Z,5.50
2023-04-09T04:11:18.330Z,4.95
2023-04-09T04:16:20.918Z,4.43
2023-04-09T04:21:27.634Z,4.63
2023-04-09T04:26:35.651Z,4.57
2023-04-09T04:31:38.754Z,2.72
2023-04-09T04:36:41.256Z,2.85
2023-04-09T04:41:44.093Z,2.72
2023-04-09T04:46:52.425Z,2.50
2023-04-09T04:51:54.985Z,2.00
2023-04-09T04:56:57.688Z,1.80
2023-04-09T05:02:20.606Z,2.40
2023-04-09T05:07:43.422Z,1.83
2023-04-09T05:12:46.002Z,2.30
2023-04-09T05:17:56.203Z,2.58
2023-04-09T05:22:58.724Z,1.95
2023-04-09T05:28:07.027Z,2.63
2023-04-09T05:33:11.203Z,1.95
2023-04-09T05:38:14.281Z,2.17
2023-04-09T05:43:19.469Z,1.88
2023-04-09T05:48:22.241Z,2.05
2023-04-09T05:53:27.233Z,2.00
2023-04-09T05:58:30.007Z,2.30
2023-04-09T06:03:34.055Z,2.10
2023-04-09T06:08:37.071Z,1.80
2023-04-09T06:13:40.498Z,2.00
2023-04-09T06:18:43.060Z,1.90
2023-04-09T06:23:45.925Z,2.25
2023-04-09T06:28:48.332Z,1.83
2023-04-09T06:33:51.135Z,1.80
2023-04-09T06:38:54.544Z,1.85
2023-04-09T06:43:56.982Z,1.60
2023-04-09T06:48:59.494Z,1.98
2023-04-09T06:54:01.984Z,1.70
2023-04-09T06:59:04.447Z,1.75
2023-04-09T07:04:06.982Z,1.98
2023-04-09T07:09:09.592Z,1.88
2023-04-09T07:14:12.196Z,1.60
2023-04-09T07:19:14.631Z,2.42
2023-04-09T07:24:17.055Z,1.77
2023-04-09T07:29:20.983Z,1.73
2023-04-09T07:34:23.439Z,1.70
2023-04-09T07:39:26.016Z,1.70
2023-04-09T07:44:28.474Z,1.40
2023-04-09T07:49:31.097Z,1.80
2023-04-09T07:54:34.355Z,1.95
2023-04-09T07:59:37.010Z,1.85
2023-04-09T08:04:39.664Z,1.83
2023-04-09T08:09:42.271Z,2.33
2023-04-09T08:14:44.798Z,2.25
2023-04-09T08:19:47.348Z,1.80
2023-04-09T08:24:53.571Z,1.80
2023-04-09T08:29:56.082Z,1.83
2023-04-09T08:34:58.575Z,2.25
2023-04-09T08:40:00.990Z,2.78
2023-04-09T08:45:06.253Z,1.70
2023-04-09T08:50:09.104Z,1.58
2023-04-09T08:55:12.512Z,1.90
2023-04-09T09:00:15.272Z,1.80
2023-04-09T09:05:17.833Z,2.05
2023-04-09T09:10:20.357Z,2.20
2023-04-09T09:15:27.900Z,1.98
2023-04-09T09:20:30.431Z,1.75
2023-04-09T09:25:38.851Z,1.98
2023-04-09T09:30:41.953Z,1.88
2023-04-09T09:35:52.846Z,2.53
2023-04-09T09:40:55.508Z,2.63
2023-04-09T09:45:58.815Z,1.98
2023-04-09T09:51:04.174Z,2.40
2023-04-09T09:56:07.850Z,2.10
2023-04-09T10:01:14.029Z,2.47
2023-04-09T10:06:16.765Z,2.35
2023-04-09T10:11:21.113Z,2.13
2023-04-09T10:16:24.394Z,1.95
2023-04-09T10:26:35.956Z,2.35
2023-04-09T10:32:07.254Z,2.17
2023-04-09T10:37:21.520Z,1.70
2023-04-09T10:42:33.122Z,2.00
2023-04-09T10:47:40.753Z,2.00
2023-04-09T10:52:44.700Z,2.25
2023-04-09T10:57:47.123Z,2.20
2023-04-09T11:03:02.397Z,2.05
2023-04-09T11:08:13.268Z,1.75
2023-04-09T11:13:17.687Z,2.00
2023-04-09T11:18:22.385Z,2.00
2023-04-09T11:23:25.429Z,1.70
2023-04-09T11:28:27.884Z,2.30
2023-04-09T11:33:34.672Z,2.00
2023-04-09T11:38:38.634Z,1.73
2023-04-09T11:43:41.339Z,2.13
2023-04-09T11:48:43.824Z,2.20
2023-04-09T11:53:48.592Z,2.13
2023-04-09T11:58:51.610Z,1.83
2023-04-09T12:03:55.472Z,2.22
2023-04-09T12:08:59.539Z,2.00
2023-04-09T12:14:06.018Z,2.40
2023-04-09T12:19:09.812Z,2.83
2023-04-09T12:24:12.203Z,2.65
2023-04-09T12:29:16.231Z,2.55
2023-04-09T12:34:18.674Z,2.30
2023-04-09T12:39:21.314Z,2.55
2023-04-09T12:44:23.738Z,2.13
2023-04-09T12:49:35.751Z,2.03
2023-04-09T12:54:41.213Z,2.85
2023-04-09T12:59:46.158Z,2.15
2023-04-09T13:05:08.861Z,2.03
2023-04-09T13:10:34.379Z,2.03
2023-04-09T13:15:59.723Z,2.60
2023-04-09T13:21:22.271Z,2.85
2023-04-09T13:26:24.697Z,3.60
2023-04-09T13:31:41.317Z,3.05
2023-04-09T13:36:43.734Z,4.05
2023-04-09T13:41:46.402Z,3.15
2023-04-09T13:47:07.480Z,3.35
2023-04-09T13:52:29.691Z,3.70
2023-04-09T13:57:51.449Z,2.88
2023-04-09T14:02:54.015Z,2.63
2023-04-09T14:07:56.748Z,3.70
2023-04-09T14:12:59.393Z,4.00
2023-04-09T14:18:02.952Z,3.15
2023-04-09T14:23:05.519Z,8.82
2023-04-09T14:28:07.945Z,5.20
2023-04-09T14:33:10.752Z,2.83
2023-04-09T14:38:13.260Z,2.72
2023-04-09T14:43:15.778Z,2.60
2023-04-09T14:48:18.350Z,3.03
2023-04-09T14:53:21.091Z,2.72
2023-04-09T14:58:23.604Z,3.28
2023-04-09T15:03:26.270Z,3.08
2023-04-09T15:08:28.984Z,2.85
2023-04-09T15:13:31.628Z,4.40
2023-04-09T15:18:34.326Z,6.65
2023-04-09T15:23:37.172Z,4.68
2023-04-09T15:28:39.659Z,4.15
2023-04-09T15:33:45.911Z,4.38
2023-04-09T15:38:48.437Z,4.95
2023-04-09T15:43:52.103Z,4.95
2023-04-09T15:48:54.736Z,4.60
2023-04-09T15:53:57.720Z,4.85
2023-04-09T15:59:02.356Z,3.33
2023-04-09T16:04:05.191Z,3.03
2023-04-09T16:09:07.747Z,3.33
2023-04-09T16:14:10.321Z,3.80
2023-04-09T16:19:13.927Z,3.80
2023-04-09T16:24:16.620Z,4.15
2023-04-09T16:29:19.031Z,3.28
2023-04-09T16:34:21.467Z,4.80
2023-04-09T16:39:23.928Z,4.25
2023-04-09T16:44:26.499Z,4.82
2023-04-09T16:49:29.054Z,4.78
2023-04-09T16:54:31.481Z,5.32
2023-04-09T16:59:33.891Z,5.13
2023-04-09T17:04:38.368Z,4.40
2023-04-09T17:09:40.920Z,5.00
2023-04-09T17:14:44.769Z,5.13
2023-04-09T17:19:47.181Z,5.25
2023-04-09T17:24:49.905Z,4.70
2023-04-09T17:29:52.358Z,5.50
2023-04-09T17:34:54.938Z,4.63
2023-04-09T17:39:57.385Z,4.78
2023-04-09T17:45:00.024Z,4.38
2023-04-09T17:50:03.082Z,4.15
2023-04-09T17:55:12.730Z,5.20
2023-04-09T18:00:15.805Z,5.18
2023-04-09T18:05:23.291Z,4.82
2023-04-09T18:10:26.430Z,8.15
2023-04-09T18:15:28.914Z,8.80
2023-04-09T18:20:33.011Z,10.13
2023-04-09T18:25:35.446Z,10.20
2023-04-09T18:30:39.149Z,10.43
2023-04-09T18:35:41.556Z,10.25
2023-04-09T18:40:44.739Z,11.63
2023-04-09T18:45:47.424Z,11.27
2023-04-09T18:50:49.827Z,10.70
2023-04-09T18:55:52.422Z,11.70
2023-04-09T19:00:54.993Z,9.77
2023-04-09T19:05:57.853Z,9.73
2023-04-09T19:11:01.515Z,9.93
2023-04-09T19:16:04.883Z,10.40
2023-04-09T19:21:08.657Z,9.23
2023-04-09T19:26:11.148Z,9.65
2023-04-09T19:31:14.783Z,8.98
2023-04-09T19:36:19.634Z,8.13
2023-04-09T19:46:24.606Z,6.57
2023-04-09T19:51:27.676Z,6.28
2023-04-09T19:56:30.314Z,7.55
2023-04-09T20:01:32.991Z,6.35
2023-04-09T20:06:35.885Z,6.93
2023-04-09T20:11:39.400Z,6.80
2023-04-09T20:16:41.880Z,6.55
2023-04-09T20:21:44.413Z,6.25
2023-04-09T20:26:47.930Z,7.43
2023-04-09T20:31:50.379Z,6.78
2023-04-09T20:36:56.975Z,6.13
2023-04-09T20:41:59.455Z,6.57
2023-04-09T20:47:03.464Z,6.90
2023-04-09T20:52:07.487Z,7.15
2023-04-09T20:57:13.730Z,7.93
2023-04-09T21:02:17.864Z,8.25
2023-04-09T21:07:20.658Z,7.18
2023-04-09T21:12:23.120Z,8.65
2023-04-09T21:17:25.675Z,8.00
2023-04-09T21:22:28.183Z,7.22
2023-04-09T21:27:30.762Z,7.28
2023-04-09T21:32:33.210Z,7.25
2023-04-09T21:37:37.798Z,7.03
2023-04-09T21:42:40.174Z,6.50
2023-04-09T21:47:42.622Z,6.00
2023-04-09T21:52:46.204Z,6.35
2023-04-09T21:57:48.653Z,5.35
2023-04-09T22:02:51.310Z,4.72
2023-04-09T22:07:55.769Z,5.40
2023-04-09T22:12:58.189Z,4.90
2023-04-09T22:18:00.669Z,4.75
2023-04-09T22:23:03.368Z,5.22
2023-04-09T22:28:06.443Z,5.53
2023-04-09T22:33:08.921Z,5.90
2023-04-09T22:38:11.722Z,5.05
2023-04-09T22:43:14.980Z,5.35
2023-04-09T22:48:17.404Z,4.32
2023-04-09T22:53:19.835Z,4.15
2023-04-09T22:58:22.310Z,6.18
2023-04-09T23:03:24.967Z,5.88
2023-04-09T23:08:27.678Z,6.00
2023-04-09T23:13:30.128Z,6.68
2023-04-09T23:18:35.229Z,5.70
2023-04-09T23:23:38.829Z,7.70
2023-04-09T23:28:42.517Z,7.35
2023-04-09T23:33:44.927Z,7.28
2023-04-09T23:38:47.688Z,7.57
2023-04-09T23:43:51.553Z,6.53
2023-04-09T23:48:54.196Z,5.95
2023-04-09T23:53:56.933Z,7.38
2023-04-09T23:58:59.468Z,8.55
